Back to Top

Language: 

My Weather Underground Personal Weather Station Historical Data with Graphs...

Delerius Weather Station Historical Data
Daily Summary for July 10, 2017 Units:  Metric    English   Both
« Previous Day
Next Day »
Daily Weekly Monthly Yearly Custom
  High: Low: Average:
Temperature: 19.5 °C 12.9 °C 16.3 °C
Dew Point: 15.6 °C 10 °C 12.7 °C
Humidity: 90 % 68 % 80 %
Wind Speed: 22.5 km/h 0 km/h 6.8 km/h
Wind Gust: 37 km/h - -
Wind:- - WNW
Pressure: 1009.4 hPa 1006.3 hPa -
Precipitation: 0.76 mm    
Historical Graphs
 
 
Tabular Data for July 10, 2017
Time Temperature Dew Point Pressure Wind Wind Speed Wind Gust Humidity Rainfall Rate (Hourly) solar Conditions
00:04 17.6 °C 14.1 °C 1009 hPa NW 1.6 km/h 6.4 km/h 80 % 0 mm 0 W/m2
00:09 17.5 °C 13.6 °C 1009.4 hPa NW 3.2 km/h 8 km/h 78 % 0 mm 0 W/m2
00:14 17.4 °C 13.3 °C 1009.4 hPa NW 3.2 km/h 8 km/h 77 % 0 mm 0 W/m2
00:19 17.3 °C 13.2 °C 1009.4 hPa NW 3.2 km/h 11.3 km/h 77 % 0 mm 0 W/m2
00:24 17.2 °C 12.9 °C 1009 hPa NW 4.8 km/h 11.3 km/h 76 % 0 mm 0 W/m2
00:29 17.1 °C 12.8 °C 1009 hPa NW 4.8 km/h 11.3 km/h 76 % 0 mm 0 W/m2
00:34 17.1 °C 12.8 °C 1009 hPa NW 3.2 km/h 9.7 km/h 76 % 0 mm 0 W/m2
00:39 17.1 °C 12.8 °C 1009 hPa NW 3.2 km/h 9.7 km/h 76 % 0 mm 0 W/m2
00:45 16.9 °C 12.4 °C 1009 hPa NW 4.8 km/h 11.3 km/h 75 % 0 mm 0 W/m2
00:49 16.8 °C 11.7 °C 1009 hPa NW 4.8 km/h 11.3 km/h 72 % 0 mm 0 W/m2
00:55 16.7 °C 11.6 °C 1009 hPa NW 4.8 km/h 9.7 km/h 72 % 0 mm 0 W/m2
01:00 16.5 °C 11.4 °C 1009 hPa NW 4.8 km/h 11.3 km/h 72 % 0 mm 0 W/m2
01:05 16.4 °C 11.3 °C 1009 hPa NW 3.2 km/h 11.3 km/h 72 % 0 mm 0 W/m2
01:10 16.3 °C 11.4 °C 1009 hPa NW 1.6 km/h 8 km/h 73 % 0 mm 0 W/m2
01:15 16.2 °C 11.3 °C 1009 hPa NW 3.2 km/h 8 km/h 73 % 0 mm 0 W/m2
01:20 16.1 °C 11.3 °C 1009 hPa NW 4.8 km/h 8 km/h 73 % 0 mm 0 W/m2
01:25 16 °C 11.4 °C 1009 hPa NW 3.2 km/h 8 km/h 74 % 0 mm 0 W/m2
01:30 16 °C 11.4 °C 1008.7 hPa NW 1.6 km/h 6.4 km/h 74 % 0 mm 0 W/m2
01:35 16 °C 11.6 °C 1008.7 hPa Calm   6.4 km/h 75 % 0 mm 0 W/m2
01:38 16 °C 11.8 °C 1008.7 hPa Calm   3.2 km/h 76 % 0 mm 0 W/m2
01:43 15.9 °C 11.7 °C 1008.7 hPa Calm   1.6 km/h 76 % 0 mm 0 W/m2
01:48 15.9 °C 11.9 °C 1008.7 hPa Calm   4.8 km/h 77 % 0 mm 0 W/m2
01:53 15.8 °C 11.8 °C 1008.7 hPa Calm   4.8 km/h 77 % 0 mm 0 W/m2
01:59 15.7 °C 11.9 °C 1008.7 hPa Calm   1.6 km/h 78 % 0 mm 0 W/m2
02:04 15.7 °C 11.5 °C 1008.7 hPa Calm   4.8 km/h 76 % 0 mm 0 W/m2
02:09 15.6 °C 11.4 °C 1008.7 hPa Calm   4.8 km/h 76 % 0 mm 0 W/m2
02:14 15.6 °C 11.6 °C 1008.4 hPa Calm   1.6 km/h 77 % 0 mm 0 W/m2
02:19 15.6 °C 11.6 °C 1008.4 hPa Calm     77 % 0 mm 0 W/m2
02:24 15.4 °C 11.4 °C 1008.4 hPa Calm   1.6 km/h 77 % 0 mm 0 W/m2
02:29 15.4 °C 11.4 °C 1008.4 hPa Calm   1.6 km/h 77 % 0 mm 0 W/m2
02:34 15.3 °C 11.5 °C 1008.4 hPa Calm   3.2 km/h 78 % 0 mm 0 W/m2
02:39 15.2 °C 11.4 °C 1008.4 hPa NW 1.6 km/h 6.4 km/h 78 % 0 mm 0 W/m2
02:44 15.2 °C 11.6 °C 1008.4 hPa NW 3.2 km/h 8 km/h 79 % 0 mm 0 W/m2
02:49 15 °C 11.4 °C 1008.4 hPa NW 4.8 km/h 8 km/h 79 % 0 mm 0 W/m2
02:54 14.8 °C 11.2 °C 1008.4 hPa NW 3.2 km/h 8 km/h 79 % 0 mm 0 W/m2
02:59 14.7 °C 11.1 °C 1008.4 hPa NW 1.6 km/h 8 km/h 79 % 0 mm 0 W/m2
03:04 14.6 °C 11.4 °C 1008.4 hPa NW 1.6 km/h 6.4 km/h 81 % 0 mm 0 W/m2
03:09 14.3 °C 11.3 °C 1008.4 hPa NW 1.6 km/h 4.8 km/h 82 % 0 mm 0 W/m2
03:14 14.1 °C 11.3 °C 1008.4 hPa Calm     83 % 0 mm 0 W/m2
03:19 13.9 °C 10.9 °C 1008.4 hPa Calm   3.2 km/h 82 % 0 mm 0 W/m2
03:24 13.7 °C 10.7 °C 1008.4 hPa Calm   3.2 km/h 82 % 0 mm 0 W/m2
03:29 13.6 °C 10.6 °C 1008 hPa Calm   1.6 km/h 82 % 0 mm 0 W/m2
03:34 13.6 °C 10.6 °C 1008 hPa NW 1.6 km/h 3.2 km/h 82 % 0 mm 0 W/m2
03:39 13.4 °C 10.4 °C 1008 hPa NW 1.6 km/h 8 km/h 82 % 0 mm 0 W/m2
03:44 13.4 °C 10.4 °C 1008 hPa NW 1.6 km/h 8 km/h 82 % 0 mm 0 W/m2
03:49 13.5 °C 10.5 °C 1008 hPa Calm   4.8 km/h 82 % 0 mm 0 W/m2
03:54 13.6 °C 10.8 °C 1007.7 hPa Calm   1.6 km/h 83 % 0 mm 0 W/m2
03:59 13.5 °C 10.7 °C 1007.7 hPa NW 1.6 km/h 8 km/h 83 % 0 mm 0 W/m2
04:04 13.4 °C 10.8 °C 1007.7 hPa NW 3.2 km/h 8 km/h 84 % 0 mm 0 W/m2
04:09 13.3 °C 10.7 °C 1007.7 hPa NW 1.6 km/h 8 km/h 84 % 0 mm 0 W/m2
04:14 13.3 °C 10.7 °C 1007.7 hPa Calm   8 km/h 84 % 0 mm 0 W/m2
04:19 13.3 °C 10.5 °C 1007.7 hPa Calm   6.4 km/h 83 % 0 mm 0 W/m2
04:24 13.2 °C 10.4 °C 1007.7 hPa NW 1.6 km/h 8 km/h 83 % 0 mm 0 W/m2
04:29 13.2 °C 10.6 °C 1007.7 hPa NW 3.2 km/h 9.7 km/h 84 % 0 mm 0 W/m2
04:34 13.2 °C 10.6 °C 1007.7 hPa NW 3.2 km/h 9.7 km/h 84 % 0 mm 0 W/m2
04:39 13.2 °C 10.6 °C 1007.3 hPa NW 1.6 km/h 8 km/h 84 % 0 mm 0 W/m2
04:44 13.2 °C 10.6 °C 1007.3 hPa NW 1.6 km/h 8 km/h 84 % 0 mm 0 W/m2
04:49 13.2 °C 10.6 °C 1007.3 hPa NW 3.2 km/h 9.7 km/h 84 % 0 mm 0 W/m2
04:54 13.2 °C 10.6 °C 1007.3 hPa NW 3.2 km/h 9.7 km/h 84 % 0 mm 7 W/m2
04:59 13.2 °C 10.6 °C 1007.3 hPa NW 1.6 km/h 6.4 km/h 84 % 0 mm 11 W/m2
05:04 13.1 °C 10.4 °C 1007.3 hPa Calm   3.2 km/h 84 % 0 mm 14 W/m2
05:09 13.1 °C 10.4 °C 1007.3 hPa Calm   1.6 km/h 84 % 0 mm 18 W/m2
05:15 13 °C 10.6 °C 1007.3 hPa Calm     85 % 0 mm 21 W/m2
05:19 12.9 °C 10.4 °C 1007.3 hPa Calm     85 % 0 mm 23 W/m2
05:25 12.9 °C 10.4 °C 1007.3 hPa Calm     85 % 0 mm 28 W/m2
05:30 12.9 °C 10.6 °C 1007.3 hPa Calm     86 % 0 mm 37 W/m2
05:35 12.9 °C 10.6 °C 1007.3 hPa Calm     86 % 0 mm 47 W/m2
05:40 13.1 °C 10.6 °C 1007.3 hPa Calm   3.2 km/h 85 % 0 mm 58 W/m2
05:45 13.1 °C 10.6 °C 1007.7 hPa Calm   4.8 km/h 85 % 0 mm 63 W/m2
05:50 13.2 °C 10.7 °C 1007.7 hPa Calm   4.8 km/h 85 % 0 mm 62 W/m2
05:55 13.4 °C 10.9 °C 1007.7 hPa Calm   4.8 km/h 85 % 0 mm 56 W/m2
06:00 13.5 °C 11 °C 1007.7 hPa Calm   3.2 km/h 85 % 0 mm 49 W/m2
06:05 13.7 °C 11.2 °C 1007.3 hPa Calm   4.8 km/h 85 % 0 mm 47 W/m2
06:10 13.8 °C 11.2 °C 1007.3 hPa Calm   4.8 km/h 84 % 0 mm 51 W/m2
06:15 14 °C 11.3 °C 1007.3 hPa Calm   4.8 km/h 84 % 0 mm 56 W/m2
06:20 14.1 °C 11.4 °C 1007.3 hPa NW 1.6 km/h 6.4 km/h 84 % 0 mm 63 W/m2
06:25 14.1 °C 11.4 °C 1007.3 hPa NW 1.6 km/h 6.4 km/h 84 % 0 mm 70 W/m2
06:30 14.1 °C 11.4 °C 1007.3 hPa Calm   3.2 km/h 84 % 0 mm 77 W/m2
06:35 14.2 °C 11.6 °C 1007.3 hPa Calm     84 % 0 mm 79 W/m2
06:40 14.2 °C 11.6 °C 1007.7 hPa Calm     84 % 0 mm 76 W/m2
06:45 14.3 °C 11.6 °C 1007.3 hPa Calm     84 % 0 mm 54 W/m2
06:50 14.3 °C 11.6 °C 1007.3 hPa Calm   1.6 km/h 84 % 0 mm 44 W/m2
06:55 14.4 °C 11.7 °C 1007.3 hPa Calm   1.6 km/h 84 % 0 mm 40 W/m2
07:00 14.5 °C 12 °C 1007.3 hPa Calm     85 % 0 mm 40 W/m2
07:05 14.6 °C 12.1 °C 1007.7 hPa Calm     85 % 0 mm 47 W/m2
07:10 14.8 °C 12.5 °C 1007.7 hPa Calm   1.6 km/h 86 % 0 mm 58 W/m2
07:15 14.9 °C 12.6 °C 1007.7 hPa Calm   1.6 km/h 86 % 0 mm 58 W/m2
07:21 15 °C 12.8 °C 1007.7 hPa Calm     87 % 0 mm 67 W/m2
07:26 15.1 °C 12.9 °C 1007.7 hPa Calm   3.2 km/h 87 % 0 mm 74 W/m2
07:31 15.1 °C 12.9 °C 1007.7 hPa Calm   3.2 km/h 87 % 0 mm 83 W/m2
07:36 15.1 °C 12.9 °C 1007.7 hPa Calm     87 % 0 mm 95 W/m2
07:41 15.2 °C 13.2 °C 1007.3 hPa Calm     88 % 0 mm 105 W/m2
07:46 15.3 °C 13.5 °C 1007.7 hPa Calm     89 % 0 mm 97 W/m2
07:51 15.3 °C 13.3 °C 1007.7 hPa Calm   1.6 km/h 88 % 0 mm 91 W/m2
07:56 15.3 °C 13.3 °C 1007.7 hPa Calm   1.6 km/h 88 % 0 mm 100 W/m2
08:01 15.4 °C 13.4 °C 1007.7 hPa Calm   1.6 km/h 88 % 0 mm 98 W/m2
08:06 15.4 °C 13.4 °C 1007.7 hPa Calm     88 % 0 mm 93 W/m2
08:11 15.4 °C 13.4 °C 1007.3 hPa Calm     88 % 0 mm 100 W/m2
08:16 15.5 °C 13.5 °C 1007.3 hPa Calm     88 % 0 mm 98 W/m2
08:21 15.6 °C 13.6 °C 1007.3 hPa Calm     88 % 0 mm 100 W/m2
08:26 15.7 °C 13.9 °C 1007.3 hPa Calm     89 % 0 mm 139 W/m2
08:31 15.8 °C 14 °C 1007.3 hPa Calm   3.2 km/h 89 % 0 mm 178 W/m2
08:36 15.9 °C 14.1 °C 1007.3 hPa Calm   3.2 km/h 89 % 0 mm 197 W/m2
08:41 16.1 °C 14.3 °C 1007.3 hPa Calm   1.6 km/h 89 % 0 mm 158 W/m2
08:46 16.1 °C 14.1 °C 1007.3 hPa Calm   1.6 km/h 88 % 0 mm 197 W/m2
08:51 16.2 °C 14.2 °C 1007.3 hPa NW 1.6 km/h 6.4 km/h 88 % 0 mm 236 W/m2
08:56 16.3 °C 14.3 °C 1007.3 hPa NW 1.6 km/h 6.4 km/h 88 % 0 mm 183 W/m2
09:01 16.3 °C 14.1 °C 1007.3 hPa NW 1.6 km/h 4.8 km/h 87 % 0 mm 169 W/m2
09:06 16.4 °C 14.2 °C 1007.3 hPa Calm   4.8 km/h 87 % 0 mm 207 W/m2
09:11 16.5 °C 14.3 °C 1007.3 hPa NW 1.6 km/h 6.4 km/h 87 % 0 mm 279 W/m2
09:16 16.7 °C 14.5 °C 1007.3 hPa WNW 3.2 km/h 9.7 km/h 87 % 0 mm 348 W/m2
09:21 16.8 °C 14.4 °C 1007.3 hPa West 3.2 km/h 9.7 km/h 86 % 0 mm 248 W/m2
09:26 16.9 °C 14.6 °C 1007.3 hPa SW 3.2 km/h 9.7 km/h 86 % 0 mm 181 W/m2
09:31 16.9 °C 14.3 °C 1007.3 hPa SSW 4.8 km/h 9.7 km/h 85 % 0 mm 137 W/m2
09:36 16.9 °C 14.3 °C 1007.3 hPa SSW 3.2 km/h 6.4 km/h 85 % 0 mm 120 W/m2
09:41 17 °C 14.7 °C 1007.3 hPa SSW 1.6 km/h 6.4 km/h 86 % 0 mm 130 W/m2
09:46 17.1 °C 14.7 °C 1007.3 hPa SW 4.8 km/h 9.7 km/h 86 % 0 mm 127 W/m2
09:51 17.1 °C 14.7 °C 1007.3 hPa WSW 4.8 km/h 9.7 km/h 86 % 0.25 mm 155 W/m2
09:56 17.1 °C 14.7 °C 1007.3 hPa West 4.8 km/h 9.7 km/h 86 % 0.25 mm 153 W/m2
10:01 17.1 °C 14.9 °C 1007.3 hPa West 4.8 km/h 8 km/h 87 % 0.25 mm 153 W/m2
10:06 17.1 °C 14.7 °C 1007.3 hPa WSW 6.4 km/h 12.9 km/h 86 % 0.25 mm 183 W/m2
10:12 17 °C 14.8 °C 1007.3 hPa WSW 6.4 km/h 12.9 km/h 87 % 0.25 mm 188 W/m2
10:17 17 °C 14.8 °C 1007.3 hPa West 4.8 km/h 11.3 km/h 87 % 0.25 mm 181 W/m2
10:22 17 °C 14.8 °C 1007.3 hPa West 4.8 km/h 11.3 km/h 87 % 0.25 mm 223 W/m2
10:27 17 °C 15 °C 1007.3 hPa West 8 km/h 16.1 km/h 88 % 0.51 mm 255 W/m2
10:28 16.9 °C 14.7 °C 1007.3 hPa West 8 km/h 16.1 km/h 87 % 0.51 mm 239 W/m2
10:33 16.9 °C 14.9 °C 1007.3 hPa West 9.7 km/h 16.1 km/h 88 % 0.51 mm 232 W/m2
10:38 16.9 °C 14.9 °C 1007.3 hPa WNW 8 km/h 14.5 km/h 88 % 0.51 mm 183 W/m2
10:43 16.9 °C 14.9 °C 1007.3 hPa West 8 km/h 14.5 km/h 88 % 0.51 mm 165 W/m2
10:48 16.9 °C 14.9 °C 1007.3 hPa West 8 km/h 12.9 km/h 88 % 0.25 mm 172 W/m2
10:53 16.9 °C 15.1 °C 1007.7 hPa West 6.4 km/h 12.9 km/h 89 % 0.25 mm 195 W/m2
10:58 16.9 °C 15.1 °C 1007.7 hPa WNW 3.2 km/h 8 km/h 89 % 0.25 mm 209 W/m2
11:03 17 °C 15.2 °C 1007.7 hPa WNW 4.8 km/h 12.9 km/h 89 % 0.25 mm 207 W/m2
11:08 16.9 °C 15.1 °C 1007.7 hPa West 6.4 km/h 12.9 km/h 89 % 0.25 mm 153 W/m2
11:13 16.9 °C 15.1 °C 1007.3 hPa WNW 8 km/h 12.9 km/h 89 % 0.51 mm 169 W/m2
11:18 16.9 °C 15.1 °C 1007.7 hPa WNW 6.4 km/h 12.9 km/h 89 % 0.51 mm 204 W/m2
11:23 17 °C 15.3 °C 1007.7 hPa WNW 3.2 km/h 8 km/h 90 % 0.51 mm 306 W/m2
11:28 17.1 °C 15.4 °C 1007.7 hPa WNW 4.8 km/h 12.9 km/h 90 % 0.25 mm 186 W/m2
11:33 17.1 °C 15.3 °C 1007.7 hPa WNW 8 km/h 14.5 km/h 89 % 0.25 mm 285 W/m2
11:38 17.1 °C 15.3 °C 1007.7 hPa WNW 8 km/h 14.5 km/h 89 % 0.25 mm 272 W/m2
11:43 17.1 °C 15.3 °C 1007.7 hPa WNW 8 km/h 14.5 km/h 89 % 0.25 mm 239 W/m2
11:48 17.1 °C 15.3 °C 1007.3 hPa WNW 8 km/h 14.5 km/h 89 % 0.25 mm 396 W/m2
11:53 17.3 °C 15.4 °C 1007.3 hPa WNW 9.7 km/h 17.7 km/h 89 % 0.25 mm 413 W/m2
11:58 17.4 °C 15.6 °C 1007.3 hPa WNW 9.7 km/h 17.7 km/h 89 % 0.25 mm 339 W/m2
12:03 17.3 °C 15.1 °C 1007.3 hPa WNW 11.3 km/h 17.7 km/h 87 % 0.25 mm 250 W/m2
12:09 17.3 °C 14.9 °C 1007.3 hPa West 12.9 km/h 20.9 km/h 86 % 0.25 mm 232 W/m2
12:13 17.2 °C 14.7 °C 1007.3 hPa West 12.9 km/h 20.9 km/h 85 % 0 mm 141 W/m2
12:18 17.1 °C 14.7 °C 1007.3 hPa West 11.3 km/h 17.7 km/h 86 % 0 mm 127 W/m2
12:23 16.9 °C 14.6 °C 1007.3 hPa West 9.7 km/h 16.1 km/h 86 % 0 mm 174 W/m2
12:29 16.9 °C 14.6 °C 1007.3 hPa West 9.7 km/h 14.5 km/h 86 % 0 mm 199 W/m2
12:34 16.9 °C 14.6 °C 1007.3 hPa West 8 km/h 12.9 km/h 86 % 0 mm 223 W/m2
12:39 17 °C 14.7 °C 1007.3 hPa WNW 8 km/h 12.9 km/h 86 % 0 mm 250 W/m2
12:44 17.1 °C 14.7 °C 1007.3 hPa WNW 8 km/h 16.1 km/h 86 % 0 mm 255 W/m2
12:49 17.2 °C 14.8 °C 1007.3 hPa WNW 9.7 km/h 16.1 km/h 86 % 0 mm 297 W/m2
12:54 17.3 °C 14.6 °C 1007.3 hPa West 11.3 km/h 17.7 km/h 84 % 0 mm 322 W/m2
12:59 17.4 °C 14.7 °C 1007.3 hPa West 11.3 km/h 17.7 km/h 84 % 0 mm 381 W/m2
13:04 17.6 °C 14.5 °C 1007 hPa West 9.7 km/h 17.7 km/h 82 % 0 mm 332 W/m2
13:09 17.8 °C 14.5 °C 1007 hPa West 11.3 km/h 17.7 km/h 81 % 0 mm 380 W/m2
13:15 18 °C 14.5 °C 1007 hPa West 11.3 km/h 17.7 km/h 80 % 0 mm 529 W/m2
13:20 18.3 °C 14.8 °C 1007 hPa West 9.7 km/h 17.7 km/h 80 % 0 mm 533 W/m2
13:25 18.6 °C 14.7 °C 1007 hPa WSW 11.3 km/h 17.7 km/h 78 % 0 mm 577 W/m2
13:30 18.8 °C 14.9 °C 1007 hPa WSW 9.7 km/h 17.7 km/h 78 % 0 mm 520 W/m2
13:35 19.2 °C 14.7 °C 1007 hPa West 11.3 km/h 20.9 km/h 75 % 0 mm 387 W/m2
13:40 19.3 °C 14.6 °C 1007 hPa West 12.9 km/h 20.9 km/h 74 % 0 mm 301 W/m2
13:45 19.2 °C 14.2 °C 1007 hPa West 12.9 km/h 20.9 km/h 73 % 0 mm 323 W/m2
13:50 19.2 °C 14.4 °C 1007 hPa West 12.9 km/h 20.9 km/h 74 % 0 mm 348 W/m2
13:55 19.2 °C 14.9 °C 1006.7 hPa West 9.7 km/h 19.3 km/h 76 % 0 mm 369 W/m2
14:00 19.3 °C 14.8 °C 1007 hPa West 9.7 km/h 14.5 km/h 75 % 0 mm 318 W/m2
14:05 19.4 °C 14.7 °C 1006.7 hPa West 8 km/h 14.5 km/h 74 % 0 mm 292 W/m2
14:10 19.5 °C 14.6 °C 1006.7 hPa West 9.7 km/h 17.7 km/h 73 % 0 mm 230 W/m2
14:15 19.5 °C 14.3 °C 1006.7 hPa West 11.3 km/h 17.7 km/h 72 % 0 mm 262 W/m2
14:20 19.3 °C 14.1 °C 1006.7 hPa West 9.7 km/h 14.5 km/h 72 % 0 mm 269 W/m2
14:25 19.2 °C 14.1 °C 1006.7 hPa WSW 9.7 km/h 14.5 km/h 72 % 0 mm 274 W/m2
14:30 19.1 °C 13.7 °C 1006.7 hPa WSW 9.7 km/h 14.5 km/h 71 % 0 mm 362 W/m2
14:35 19.2 °C 14.1 °C 1006.7 hPa WSW 6.4 km/h 14.5 km/h 72 % 0 mm 134 W/m2
14:40 19.2 °C 14.4 °C 1006.7 hPa WSW 4.8 km/h 11.3 km/h 74 % 0 mm 58 W/m2
14:45 19.1 °C 14.3 °C 1006.7 hPa West 6.4 km/h 12.9 km/h 74 % 0 mm 114 W/m2
14:46 19.1 °C 14.3 °C 1006.7 hPa West 8 km/h 12.9 km/h 74 % 0 mm 134 W/m2
14:51 19 °C 14.3 °C 1006.7 hPa West 11.3 km/h 19.3 km/h 74 % 0 mm 218 W/m2
14:56 19 °C 14.3 °C 1006.7 hPa West 12.9 km/h 19.3 km/h 74 % 0 mm 248 W/m2
15:01 19 °C 14.3 °C 1006.7 hPa West 12.9 km/h 22.5 km/h 74 % 0 mm 343 W/m2
15:06 19.1 °C 14.2 °C 1006.7 hPa West 14.5 km/h 22.5 km/h 73 % 0 mm 325 W/m2
15:11 19.2 °C 14.2 °C 1006.7 hPa WNW 12.9 km/h 22.5 km/h 73 % 0 mm 230 W/m2
15:16 19.2 °C 14.1 °C 1006.7 hPa NW 12.9 km/h 22.5 km/h 72 % 0 mm 221 W/m2
15:21 19.1 °C 13.9 °C 1007 hPa WNW 14.5 km/h 24.1 km/h 72 % 0 mm 230 W/m2
15:26 18.9 °C 14.4 °C 1006.7 hPa WNW 14.5 km/h 24.1 km/h 75 % 0 mm 171 W/m2
15:31 18.7 °C 14.2 °C 1006.7 hPa WNW 11.3 km/h 24.1 km/h 75 % 0 mm 183 W/m2
15:36 18.7 °C 14.4 °C 1006.7 hPa WNW 9.7 km/h 17.7 km/h 76 % 0 mm 455 W/m2
15:41 18.8 °C 14.7 °C 1006.7 hPa WNW 9.7 km/h 16.1 km/h 77 % 0 mm 378 W/m2
15:46 19.1 °C 14.8 °C 1006.3 hPa WNW 12.9 km/h 20.9 km/h 76 % 0 mm 578 W/m2
15:51 19.3 °C 14.3 °C 1006.3 hPa West 14.5 km/h 24.1 km/h 73 % 0 mm 313 W/m2
15:56 19.3 °C 14.3 °C 1006.3 hPa West 14.5 km/h 24.1 km/h 73 % 0 mm 304 W/m2
16:01 19.3 °C 14.1 °C 1006.3 hPa WNW 14.5 km/h 24.1 km/h 72 % 0 mm 241 W/m2
16:06 19.3 °C 14.3 °C 1006.3 hPa West 14.5 km/h 24.1 km/h 73 % 0 mm 216 W/m2
16:11 19.3 °C 14.3 °C 1006.7 hPa West 12.9 km/h 20.9 km/h 73 % 0 mm 190 W/m2
16:17 19.2 °C 14.1 °C 1006.7 hPa WNW 16.1 km/h 32.2 km/h 72 % 0.25 mm 214 W/m2
16:18 19.1 °C 13.9 °C 1006.7 hPa WNW 16.1 km/h 37 km/h 72 % 0.25 mm 195 W/m2
16:23 18.8 °C 13.7 °C 1006.7 hPa WNW 20.9 km/h 37 km/h 72 % 0.25 mm 174 W/m2
16:28 18.5 °C 13.6 °C 1006.7 hPa WNW 19.3 km/h 32.2 km/h 73 % 0.25 mm 237 W/m2
16:33 18.2 °C 13.7 °C 1006.7 hPa West 19.3 km/h 32.2 km/h 75 % 0.25 mm 244 W/m2
16:38 18.1 °C 13.8 °C 1006.7 hPa WNW 17.7 km/h 30.6 km/h 76 % 0.25 mm 251 W/m2
16:43 17.9 °C 14.2 °C 1006.7 hPa WNW 16.1 km/h 33.8 km/h 79 % 0.25 mm 244 W/m2
16:48 17.8 °C 14.1 °C 1006.7 hPa West 14.5 km/h 33.8 km/h 79 % 0.25 mm 218 W/m2
16:53 17.8 °C 14.3 °C 1006.7 hPa West 12.9 km/h 20.9 km/h 80 % 0.25 mm 204 W/m2
16:58 17.7 °C 14 °C 1006.7 hPa West 12.9 km/h 20.9 km/h 79 % 0.25 mm 181 W/m2
17:03 17.7 °C 14 °C 1006.7 hPa WNW 12.9 km/h 19.3 km/h 79 % 0.25 mm 114 W/m2
17:08 17.6 °C 13.7 °C 1006.7 hPa WNW 12.9 km/h 20.9 km/h 78 % 0.25 mm 132 W/m2
17:13 17.6 °C 13.9 °C 1006.7 hPa WNW 11.3 km/h 20.9 km/h 79 % 0 mm 139 W/m2
17:18 17.7 °C 14 °C 1006.7 hPa WNW 9.7 km/h 17.7 km/h 79 % 0 mm 139 W/m2
17:23 17.7 °C 13.8 °C 1006.7 hPa West 11.3 km/h 19.3 km/h 78 % 0 mm 118 W/m2
17:28 17.7 °C 13.6 °C 1006.7 hPa West 11.3 km/h 20.9 km/h 77 % 0 mm 132 W/m2
17:33 17.8 °C 13.9 °C 1007 hPa West 9.7 km/h 20.9 km/h 78 % 0 mm 148 W/m2
17:38 17.8 °C 13.5 °C 1006.7 hPa WNW 11.3 km/h 22.5 km/h 76 % 0 mm 153 W/m2
17:41 17.8 °C 13.5 °C 1006.7 hPa WNW 11.3 km/h 22.5 km/h 76 % 0 mm 134 W/m2
17:46 17.9 °C 13.6 °C 1006.7 hPa WNW 12.9 km/h 22.5 km/h 76 % 0 mm 169 W/m2
17:51 18 °C 13.3 °C 1006.7 hPa WNW 12.9 km/h 24.1 km/h 74 % 0 mm 162 W/m2
17:56 18.1 °C 13.4 °C 1006.7 hPa WNW 14.5 km/h 29 km/h 74 % 0 mm 183 W/m2
18:01 18.1 °C 13.4 °C 1006.7 hPa WNW 12.9 km/h 29 km/h 74 % 0 mm 197 W/m2
18:06 18.2 °C 13.1 °C 1006.7 hPa WNW 12.9 km/h 24.1 km/h 72 % 0 mm 179 W/m2
18:11 18.3 °C 12.9 °C 1006.7 hPa WNW 16.1 km/h 33.8 km/h 71 % 0 mm 262 W/m2
18:16 18.5 °C 12.9 °C 1006.7 hPa WNW 19.3 km/h 33.8 km/h 70 % 0 mm 253 W/m2
18:21 18.6 °C 13 °C 1006.7 hPa WNW 19.3 km/h 30.6 km/h 70 % 0 mm 178 W/m2
18:26 18.4 °C 12.8 °C 1006.7 hPa WNW 19.3 km/h 29 km/h 70 % 0 mm 153 W/m2
18:31 18.3 °C 12.5 °C 1006.7 hPa WNW 19.3 km/h 29 km/h 69 % 0 mm 243 W/m2
18:36 18.3 °C 12.7 °C 1006.7 hPa West 20.9 km/h 37 km/h 70 % 0 mm 334 W/m2
18:41 18.4 °C 12.8 °C 1006.7 hPa West 22.5 km/h 37 km/h 70 % 0 mm 445 W/m2
18:46 18.5 °C 12.9 °C 1006.7 hPa WNW 22.5 km/h 35.4 km/h 70 % 0 mm 323 W/m2
18:51 18.5 °C 12.9 °C 1007 hPa WNW 20.9 km/h 35.4 km/h 70 % 0 mm 272 W/m2
18:56 18.4 °C 12.8 °C 1007 hPa West 19.3 km/h 33.8 km/h 70 % 0 mm 294 W/m2
19:01 18.4 °C 12.6 °C 1007 hPa West 19.3 km/h 33.8 km/h 69 % 0 mm 267 W/m2
19:02 18.4 °C 12.6 °C 1007 hPa West 19.3 km/h 33.8 km/h 69 % 0 mm 267 W/m2
19:07 18.3 °C 12.5 °C 1007 hPa WNW 17.7 km/h 32.2 km/h 69 % 0 mm 236 W/m2
19:12 18.4 °C 12.6 °C 1007 hPa WNW 17.7 km/h 32.2 km/h 69 % 0 mm 283 W/m2
19:17 18.3 °C 12.3 °C 1007 hPa West 16.1 km/h 29 km/h 68 % 0 mm 243 W/m2
19:22 18.1 °C 12.3 °C 1007 hPa West 14.5 km/h 29 km/h 69 % 0 mm 93 W/m2
19:27 17.9 °C 12.3 °C 1007 hPa WNW 12.9 km/h 19.3 km/h 70 % 0 mm 258 W/m2
19:32 17.8 °C 12.3 °C 1007 hPa WNW 12.9 km/h 20.9 km/h 70 % 0 mm 128 W/m2
19:37 17.7 °C 12.2 °C 1007 hPa WNW 12.9 km/h 22.5 km/h 70 % 0 mm 81 W/m2
19:42 17.6 °C 12.1 °C 1007 hPa WNW 12.9 km/h 24.1 km/h 70 % 0 mm 197 W/m2
19:47 17.6 °C 12.3 °C 1007 hPa WNW 12.9 km/h 24.1 km/h 71 % 0 mm 156 W/m2
19:52 17.6 °C 12.3 °C 1007.3 hPa WNW 11.3 km/h 19.3 km/h 71 % 0 mm 207 W/m2
19:57 17.6 °C 12.1 °C 1007.3 hPa WNW 11.3 km/h 22.5 km/h 70 % 0 mm 132 W/m2
20:02 17.6 °C 11.8 °C 1007.3 hPa WNW 11.3 km/h 22.5 km/h 69 % 0 mm 62 W/m2
20:07 17.3 °C 11.6 °C 1007.3 hPa WNW 12.9 km/h 25.7 km/h 69 % 0 mm 53 W/m2
20:12 17 °C 11.5 °C 1007.3 hPa WNW 14.5 km/h 25.7 km/h 70 % 0 mm 47 W/m2
20:17 16.8 °C 11.5 °C 1007.3 hPa WNW 12.9 km/h 22.5 km/h 71 % 0 mm 46 W/m2
20:22 16.7 °C 11.4 °C 1007.3 hPa WNW 12.9 km/h 25.7 km/h 71 % 0 mm 44 W/m2
20:27 16.4 °C 11.1 °C 1007.3 hPa WNW 14.5 km/h 25.7 km/h 71 % 0 mm 44 W/m2
20:32 16.3 °C 11.2 °C 1007.3 hPa WNW 12.9 km/h 20.9 km/h 72 % 0 mm 42 W/m2
20:37 16.2 °C 11.2 °C 1007.7 hPa WNW 11.3 km/h 19.3 km/h 72 % 0 mm 40 W/m2
20:42 16 °C 10.9 °C 1007.7 hPa WNW 11.3 km/h 19.3 km/h 72 % 0 mm 37 W/m2
20:47 15.8 °C 10.9 °C 1007.7 hPa WNW 9.7 km/h 20.9 km/h 73 % 0 mm 32 W/m2
20:52 15.7 °C 10.9 °C 1007.7 hPa WNW 8 km/h 19.3 km/h 73 % 0 mm 26 W/m2
20:57 15.7 °C 11.1 °C 1007.7 hPa WNW 8 km/h 19.3 km/h 74 % 0 mm 23 W/m2
21:02 15.5 °C 10.9 °C 1007.7 hPa WNW 9.7 km/h 19.3 km/h 74 % 0 mm 19 W/m2
21:07 15.4 °C 10.8 °C 1007.7 hPa WNW 9.7 km/h 16.1 km/h 74 % 0 mm 16 W/m2
21:12 15.2 °C 10.6 °C 1007.7 hPa WNW 9.7 km/h 17.7 km/h 74 % 0 mm 12 W/m2
21:17 15.1 °C 10.7 °C 1007.7 hPa WNW 12.9 km/h 20.9 km/h 75 % 0 mm 9 W/m2
21:22 15 °C 10.6 °C 1007.7 hPa WNW 12.9 km/h 20.9 km/h 75 % 0 mm 5 W/m2
21:27 14.9 °C 10.5 °C 1007.7 hPa WNW 12.9 km/h 19.3 km/h 75 % 0 mm 0 W/m2
21:32 14.8 °C 10.6 °C 1007.7 hPa WNW 12.9 km/h 19.3 km/h 76 % 0 mm 0 W/m2
21:37 14.7 °C 10.5 °C 1007.7 hPa WNW 11.3 km/h 19.3 km/h 76 % 0 mm 0 W/m2
21:43 14.7 °C 10.5 °C 1008 hPa West 11.3 km/h 19.3 km/h 76 % 0 mm 0 W/m2
21:48 14.6 °C 10.4 °C 1008 hPa West 11.3 km/h 19.3 km/h 76 % 0 mm 0 W/m2
21:53 14.4 °C 10.4 °C 1008 hPa West 11.3 km/h 19.3 km/h 77 % 0 mm 0 W/m2
21:58 14.4 °C 10.4 °C 1008 hPa West 11.3 km/h 17.7 km/h 77 % 0 mm 0 W/m2
22:03 14.3 °C 10.3 °C 1008 hPa West 9.7 km/h 16.1 km/h 77 % 0 mm 0 W/m2
22:08 14.2 °C 10.4 °C 1008 hPa West 6.4 km/h 12.9 km/h 78 % 0 mm 0 W/m2
22:13 14.2 °C 10.6 °C 1008 hPa WSW 4.8 km/h 11.3 km/h 79 % 0 mm 0 W/m2
22:18 14.1 °C 10.5 °C 1008 hPa WSW 4.8 km/h 11.3 km/h 79 % 0 mm 0 W/m2
22:23 14.1 °C 10.3 °C 1008.4 hPa WSW 1.6 km/h 9.7 km/h 78 % 0 mm 0 W/m2
22:28 14.1 °C 10.3 °C 1008.4 hPa WSW 1.6 km/h 8 km/h 78 % 0 mm 0 W/m2
22:35 14 °C 10.2 °C 1008.4 hPa WSW 1.6 km/h 8 km/h 78 % 0 mm 0 W/m2
22:40 13.9 °C 10.3 °C 1008.4 hPa WSW 1.6 km/h 9.7 km/h 79 % 0 mm 0 W/m2
22:45 13.9 °C 10.3 °C 1008.4 hPa WSW 3.2 km/h 11.3 km/h 79 % 0 mm 0 W/m2
22:50 13.8 °C 10.2 °C 1008 hPa West 3.2 km/h 11.3 km/h 79 % 0 mm 0 W/m2
22:55 13.8 °C 10.2 °C 1008 hPa West 4.8 km/h 11.3 km/h 79 % 0 mm 0 W/m2
23:00 13.7 °C 10.3 °C 1008 hPa West 6.4 km/h 11.3 km/h 80 % 0 mm 0 W/m2
23:05 13.6 °C 10.2 °C 1008 hPa West 6.4 km/h 11.3 km/h 80 % 0 mm 0 W/m2
23:10 13.6 °C 10.2 °C 1008.4 hPa West 3.2 km/h 11.3 km/h 80 % 0 mm 0 W/m2
23:15 13.4 °C 10.2 °C 1008.4 hPa West 3.2 km/h 11.3 km/h 81 % 0 mm 0 W/m2
23:20 13.4 °C 10.2 °C 1008 hPa WSW 3.2 km/h 11.3 km/h 81 % 0 mm 0 W/m2
23:25 13.3 °C 10.1 °C 1008.4 hPa WSW 1.6 km/h 9.7 km/h 81 % 0 mm 0 W/m2
23:30 13.3 °C 10.1 °C 1008.4 hPa WSW 1.6 km/h 9.7 km/h 81 % 0 mm 0 W/m2
23:35 13.3 °C 10.3 °C 1008.4 hPa WSW 1.6 km/h 8 km/h 82 % 0 mm 0 W/m2
23:40 13.3 °C 10.3 °C 1008.4 hPa WSW 1.6 km/h 6.4 km/h 82 % 0 mm 0 W/m2
23:45 13.2 °C 10.2 °C 1008.4 hPa WSW 1.6 km/h 8 km/h 82 % 0 mm 0 W/m2
23:50 13.1 °C 10.1 °C 1008.4 hPa Calm   8 km/h 82 % 0 mm 0 W/m2
23:55 13 °C 10 °C 1008.4 hPa WSW 1.6 km/h 9.7 km/h 82 % 0 mm 0 W/m2
Delerius-Weather
Compliments of Weather Underground - 2.25 mb

Data updates at regular intervals.